Weather History for Lakeview AWS, OR

Change the Weather History Date:

Friday, November 30, 2012

  Actual Average Record
Temperature  
Mean Temperature 40 °F -  
Max Temperature 42 °F 41 °F 62 °F (1929)
Min Temperature 37 °F 21 °F -5 °F (1931)
Degree Days  
Heating Degree Days 26    
Moisture  
Dew Point 37 °F    
Average Humidity 90    
Maximum Humidity 93    
Minimum Humidity 81    
Precipitation  
Precipitation 0.25 in - - ()
Sea Level Pressure  
Sea Level Pressure 29.72 in    
Wind  
Wind Speed 18 mph (South)    
Max Wind Speed 26 mph    
Max Gust Speed 37 mph    
Visibility 10 miles    
Events      
Averages and records for this station are not official NWS values.
T = Trace of Precipitation, MM = Missing Value Source: NWS Daily Summary

Daily Weather History Graph

Daily Weather History Graph

Search for Another Location

Airport:

Trip Planner

Search our weather history database for the weather conditions in past years. The results will help you decide how hot, cold, wet, or windy it might be!

Date:

Astronomy

Nov. 30, 2012 Rise Set
Actual Time 7:10 AM PST 4:30 PM PST
Civil Twilight 6:38 AM PST 5:01 PM PST
Nautical Twilight 6:04 AM PST 5:36 PM PST
Astronomical Twilight 5:30 AM PST 6:10 PM PST
Moon 6:30 PM PST (11/30) 8:45 AM PST (11/30)
Length of Visible Light 10h 23m
Length of Day
9h 20m
Waning Gibbous, 96% of the Moon is Illuminated
Nov 30
Waning Gibbous
Dec 6
Last Quarter
Dec 13
New
Dec 19
First Quarter
Dec 28
Full

Hourly Weather History & Observations

Time (PST) Temp. Windchill Dew Point Humidity Pressure Visibility Wind Dir Wind Speed Gust Speed Precip Events Conditions
12:15 AM 42.8 °F 34.3 °F 39.2 °F 87% 29.67 in 10.0 mi South 19.6 mph 28.8 mph N/A   Overcast
12:35 AM 42.8 °F 34.5 °F 39.2 °F 87% 29.66 in 9.0 mi South 18.4 mph 25.3 mph 0.01 in   Overcast
12:55 AM 42.8 °F 34.3 °F 39.2 °F 87% 29.66 in 10.0 mi South 19.6 mph 26.5 mph 0.02 in   Overcast
1:15 AM 42.8 °F 33.8 °F 39.2 °F 87% 29.66 in 10.0 mi South 21.9 mph 32.2 mph 0.01 in   Overcast
1:35 AM 42.8 °F 34.5 °F 39.2 °F 87% 29.68 in 10.0 mi South 18.4 mph 27.6 mph 0.01 in   Overcast
1:55 AM 42.8 °F 34.8 °F 39.2 °F 87% 29.68 in 10.0 mi South 17.3 mph - 0.05 in   Overcast
2:15 AM 42.8 °F 35.1 °F 39.2 °F 87% 29.69 in 10.0 mi South 16.1 mph 21.9 mph 0.04 in   Overcast
2:35 AM 41.0 °F 32.2 °F 39.2 °F 93% 29.66 in 10.0 mi SSE 18.4 mph 27.6 mph 0.05 in   Overcast
2:55 AM 41.0 °F 30.9 °F 37.4 °F 87% 29.66 in 8.0 mi South 24.2 mph 36.8 mph 0.06 in   Overcast
3:15 AM 39.2 °F 29.0 °F 37.4 °F 93% 29.64 in 10.0 mi South 21.9 mph 27.6 mph N/A   Mostly Cloudy
3:35 AM 41.0 °F 31.1 °F 37.4 °F 87% 29.65 in 10.0 mi South 23.0 mph 32.2 mph 0.01 in   Overcast
3:55 AM 41.0 °F 30.7 °F 37.4 °F 87% 29.64 in 10.0 mi South 25.3 mph 31.1 mph 0.01 in   Overcast
4:15 AM 39.2 °F 28.7 °F 37.4 °F 93% 29.64 in 10.0 mi South 23.0 mph 33.4 mph N/A   Overcast
4:35 AM 39.2 °F 28.7 °F 37.4 °F 93% 29.64 in 10.0 mi South 23.0 mph 33.4 mph N/A   Overcast
4:55 AM 39.2 °F 28.3 °F 37.4 °F 93% 29.62 in 10.0 mi SSE 25.3 mph 35.7 mph N/A   Mostly Cloudy
5:15 AM 39.2 °F 28.0 °F 35.6 °F 87% 29.62 in 10.0 mi South 26.5 mph 33.4 mph N/A   Overcast
5:35 AM 39.2 °F 28.3 °F 37.4 °F 93% 29.61 in 10.0 mi South 25.3 mph 33.4 mph N/A   Overcast
5:55 AM 39.2 °F 28.7 °F 37.4 °F 93% 29.63 in 10.0 mi South 23.0 mph 32.2 mph N/A   Overcast
6:15 AM 39.2 °F 29.6 °F 37.4 °F 93% 29.64 in 10.0 mi South 19.6 mph 29.9 mph N/A   Overcast
6:35 AM 39.2 °F 29.3 °F 37.4 °F 93% 29.67 in 10.0 mi SSW 20.7 mph 28.8 mph N/A   Overcast
6:55 AM 39.2 °F 29.0 °F 37.4 °F 93% 29.68 in 8.0 mi South 21.9 mph 27.6 mph 0.02 in   Overcast
7:15 AM 39.2 °F 29.6 °F 37.4 °F 93% 29.69 in 9.0 mi SSW 19.6 mph 29.9 mph 0.01 in   Overcast
7:35 AM 39.2 °F 33.0 °F 37.4 °F 93% 29.70 in 10.0 mi SSW 9.2 mph - 0.04 in   Overcast
7:55 AM 39.2 °F 32.5 °F 37.4 °F 93% 29.69 in 8.0 mi South 10.4 mph 17.3 mph 0.08 in   Overcast
8:15 AM 39.2 °F 29.3 °F 35.6 °F 87% 29.70 in 10.0 mi SSE 20.7 mph 28.8 mph N/A   Overcast
8:35 AM 39.2 °F 29.8 °F 35.6 °F 87% 29.71 in 10.0 mi SSE 18.4 mph 23.0 mph N/A   Overcast
8:55 AM 39.2 °F 29.3 °F 35.6 °F 87% 29.72 in 10.0 mi SSE 20.7 mph 29.9 mph N/A   Overcast
9:15 AM 39.2 °F 28.7 °F 35.6 °F 87% 29.72 in 10.0 mi SSE 23.0 mph 29.9 mph N/A   Overcast
9:35 AM 37.4 °F 26.9 °F 35.6 °F 93% 29.73 in 10.0 mi SE 20.7 mph 28.8 mph N/A   Overcast
9:55 AM 37.4 °F 27.2 °F 35.6 °F 93% 29.73 in 10.0 mi SSE 19.6 mph 24.2 mph N/A   Overcast
10:15 AM 39.2 °F 29.8 °F 37.4 °F 93% 29.73 in 10.0 mi SSE 18.4 mph 26.5 mph N/A   Overcast
10:35 AM 39.2 °F 30.2 °F 37.4 °F 93% 29.75 in 10.0 mi SSE 17.3 mph 25.3 mph N/A   Overcast
10:55 AM 39.2 °F 30.2 °F 37.4 °F 93% 29.75 in 10.0 mi SSE 17.3 mph 23.0 mph N/A   Mostly Cloudy
11:15 AM 39.2 °F 30.8 °F 37.4 °F 93% 29.75 in 10.0 mi SSE 15.0 mph - N/A   Mostly Cloudy
11:35 AM 39.2 °F 32.0 °F 37.4 °F 93% 29.75 in 10.0 mi SSE 11.5 mph - N/A   Overcast
11:55 AM 39.2 °F 32.5 °F 37.4 °F 93% 29.75 in 10.0 mi SSE 10.4 mph - N/A   Overcast
12:15 PM 39.2 °F 31.6 °F 37.4 °F 93% 29.75 in 10.0 mi South 12.7 mph 18.4 mph N/A   Mostly Cloudy
12:35 PM 39.2 °F 31.2 °F 37.4 °F 93% 29.76 in 10.0 mi SSE 13.8 mph - N/A   Mostly Cloudy
12:55 PM 41.0 °F 33.5 °F 37.4 °F 87% 29.76 in 10.0 mi SSW 13.8 mph - N/A   Mostly Cloudy
1:15 PM 39.2 °F 30.8 °F 37.4 °F 93% 29.75 in 10.0 mi South 15.0 mph 26.5 mph 0.01 in   Overcast
1:35 PM 39.2 °F 31.6 °F 35.6 °F 87% 29.75 in 10.0 mi SSW 12.7 mph 25.3 mph 0.01 in   Mostly Cloudy
1:55 PM 39.2 °F 33.0 °F 37.4 °F 93% 29.75 in 10.0 mi SE 9.2 mph - 0.01 in   Overcast
2:15 PM 39.2 °F 31.2 °F 35.6 °F 87% 29.75 in 10.0 mi SSE 13.8 mph - N/A   Overcast
2:35 PM 39.2 °F 32.5 °F 37.4 °F 93% 29.76 in 10.0 mi South 10.4 mph - N/A   Overcast
2:55 PM 39.2 °F 30.2 °F 37.4 °F 93% 29.75 in 10.0 mi South 17.3 mph - N/A   Overcast
3:15 PM 39.2 °F 31.2 °F 37.4 °F 93% 29.75 in 10.0 mi South 13.8 mph - N/A   Mostly Cloudy
3:35 PM 39.2 °F 30.5 °F 37.4 °F 93% 29.75 in 10.0 mi South 16.1 mph - N/A   Mostly Cloudy
3:55 PM 39.2 °F 30.8 °F 37.4 °F 93% 29.75 in 10.0 mi South 15.0 mph 18.4 mph N/A   Overcast
4:15 PM 39.2 °F 30.8 °F 37.4 °F 93% 29.76 in 10.0 mi South 15.0 mph 18.4 mph N/A   Overcast
4:35 PM 39.2 °F 30.8 °F 37.4 °F 93% 29.76 in 10.0 mi South 15.0 mph - N/A   Overcast
4:55 PM 39.2 °F 30.8 °F 37.4 °F 93% 29.76 in 10.0 mi South 15.0 mph - N/A   Mostly Cloudy
5:15 PM 39.2 °F 31.2 °F 37.4 °F 93% 29.76 in 9.0 mi South 13.8 mph - N/A   Overcast
5:35 PM 39.2 °F 32.5 °F 35.6 °F 87% 29.77 in 10.0 mi South 10.4 mph - N/A   Mostly Cloudy
5:55 PM 39.2 °F 32.0 °F 37.4 °F 93% 29.76 in 10.0 mi South 11.5 mph - N/A   Overcast
6:15 PM 39.2 °F 32.0 °F 37.4 °F 93% 29.77 in 10.0 mi SSE 11.5 mph - N/A   Overcast
6:35 PM 39.2 °F 33.0 °F 37.4 °F 93% 29.76 in 10.0 mi SSE 9.2 mph - N/A   Overcast
6:55 PM 39.2 °F 31.6 °F 37.4 °F 93% 29.76 in 10.0 mi South 12.7 mph - N/A   Overcast
7:15 PM 39.2 °F 31.6 °F 37.4 °F 93% 29.77 in 10.0 mi South 12.7 mph - N/A   Overcast
7:35 PM 39.2 °F 31.2 °F 37.4 °F 93% 29.77 in 10.0 mi South 13.8 mph - N/A   Overcast
8:15 PM 39.2 °F 31.2 °F 35.6 °F 87% 29.77 in 10.0 mi SSE 13.8 mph - N/A   Overcast
8:35 PM 39.2 °F 32.0 °F 35.6 °F 87% 29.78 in 10.0 mi South 11.5 mph - N/A   Overcast
8:55 PM 39.2 °F 31.2 °F 35.6 °F 87% 29.78 in 10.0 mi South 13.8 mph - N/A   Overcast
9:15 PM 41.0 °F 33.5 °F 35.6 °F 81% 29.78 in 10.0 mi South 13.8 mph 21.9 mph N/A   Overcast
9:35 PM 39.2 °F 32.5 °F 35.6 °F 87% 29.79 in 10.0 mi South 10.4 mph - N/A   Overcast
9:55 PM 39.2 °F 32.5 °F 35.6 °F 87% 29.79 in 10.0 mi SSE 10.4 mph - N/A   Overcast
10:15 PM 39.2 °F 32.0 °F 35.6 °F 87% 29.80 in 10.0 mi SSE 11.5 mph - N/A   Overcast
10:35 PM 39.2 °F 30.8 °F 35.6 °F 87% 29.80 in 10.0 mi SSE 15.0 mph - N/A   Overcast
10:55 PM 39.2 °F 30.8 °F 35.6 °F 87% 29.78 in 10.0 mi SSE 15.0 mph 23.0 mph N/A   Overcast
11:15 PM 39.2 °F 30.8 °F 35.6 °F 87% 29.78 in 10.0 mi SSE 15.0 mph - N/A   Overcast
11:35 PM 39.2 °F 29.6 °F 35.6 °F 87% 29.78 in 10.0 mi SSE 19.6 mph 24.2 mph N/A   Overcast
11:55 PM 39.2 °F 30.8 °F 35.6 °F 87% 29.78 in 10.0 mi SSE 15.0 mph 29.9 mph N/A   Overcast